Time;durP1;ratioP1;P1;durP2;ratioP2;P2;SDS_P1;SDS_P2;PMS_P1;PMS_P2;Temp;Humidity;BMP_temperature;BMP_pressure;BME280_temperature;BME280_humidity;BME280_pressure;Samples;Min_cycle;Max_cycle;Signal;HPM_P1;HPM_P2
2023/08/18 00:02:15;;;;;;;9.80;7.27;;;;;;;-145.18;100.00;46640.88;5023783;28;20026;-63
2023/08/18 00:04:41;;;;;;;11.67;8.17;;;;;;;-145.18;100.00;46644.78;5019502;28;20033;-63
2023/08/18 00:07:07;;;;;;;11.97;8.20;;;;;;;-145.18;100.00;46640.88;5021576;28;20025;-62
2023/08/18 00:09:32;;;;;;;10.77;7.97;;;;;;;-145.18;100.00;46640.88;5029560;28;20397;-63
2023/08/18 00:11:57;;;;;;;10.07;8.00;;;;;;;-145.18;100.00;46638.91;5028708;28;20041;-62
2023/08/18 00:14:23;;;;;;;10.43;7.80;;;;;;;-145.18;100.00;46638.91;5028268;28;20021;-62
2023/08/18 00:16:48;;;;;;;10.97;8.00;;;;;;;-145.18;100.00;46638.91;5029917;28;20037;-63
2023/08/18 00:19:14;;;;;;;12.33;7.43;;;;;;;-145.18;100.00;46636.94;5028294;28;20084;-62
2023/08/18 00:21:40;;;;;;;11.30;8.00;;;;;;;-145.18;100.00;46638.91;5031114;28;20460;-62
2023/08/18 00:24:06;;;;;;;10.13;8.30;;;;;;;-145.18;100.00;46636.94;5026966;28;20483;-63
2023/08/18 00:26:31;;;;;;;9.53;7.90;;;;;;;-145.18;100.00;46640.88;5025221;28;20149;-62
2023/08/18 00:28:56;;;;;;;9.50;7.00;;;;;;;-145.18;100.00;46640.88;5030237;28;20397;-62
2023/08/18 00:31:24;;;;;;;10.30;8.40;;;;;;;-145.18;100.00;46676.03;5032796;28;20032;-63
2023/08/18 00:33:50;;;;;;;8.70;7.37;;;;;;;-145.18;100.00;46648.69;5028554;28;20104;-62
2023/08/18 00:36:15;;;;;;;10.43;7.87;;;;;;;-145.18;100.00;46636.94;5030783;28;20444;-63
2023/08/18 00:38:41;;;;;;;10.97;7.53;;;;;;;-145.18;100.00;46648.69;5028834;28;20033;-63
2023/08/18 00:41:06;;;;;;;12.47;8.17;;;;;;;-145.18;100.00;46640.88;5031685;28;20371;-63
2023/08/18 00:43:31;;;;;;;9.87;8.47;;;;;;;-145.18;100.00;46640.88;5030852;28;20034;-63
2023/08/18 00:45:57;;;;;;;9.10;7.70;;;;;;;-145.18;100.00;46642.81;5034379;28;20053;-63
2023/08/18 00:48:23;;;;;;;9.50;7.63;;;;;;;-145.18;100.00;46640.88;5030052;28;20026;-62
2023/08/18 00:50:49;;;;;;;8.43;7.13;;;;;;;-145.18;100.00;46644.78;5027670;28;20025;-62
2023/08/18 00:53:15;;;;;;;11.10;8.37;;;;;;;-145.18;100.00;46638.91;5022729;28;20022;-63
2023/08/18 00:55:41;;;;;;;11.47;8.30;;;;;;;-145.18;100.00;46644.78;5020563;28;20033;-63
2023/08/18 00:58:07;;;;;;;11.80;7.90;;;;;;;-145.18;100.00;46638.91;5025429;28;20033;-63
2023/08/18 01:00:33;;;;;;;10.00;8.33;;;;;;;-145.18;100.00;46638.91;5029084;28;20143;-62
2023/08/18 01:03:00;;;;;;;9.87;7.83;;;;;;;-145.18;100.00;46638.91;5023454;28;20422;-63
2023/08/18 01:05:25;;;;;;;14.57;7.50;;;;;;;-145.18;100.00;46644.78;5031407;28;20033;-62
2023/08/18 01:07:51;;;;;;;10.93;8.73;;;;;;;-145.18;100.00;46640.88;5026838;28;20039;-63
2023/08/18 01:10:16;;;;;;;10.33;8.40;;;;;;;-145.18;100.00;46644.78;5027808;28;20397;-60
2023/08/18 01:12:49;;;;;;;10.13;8.27;;;;;;;-145.18;100.00;46640.88;5025424;28;20029;-59
2023/08/18 01:15:18;;;;;;;8.60;7.53;;;;;;;-145.18;100.00;46638.91;5021902;28;20022;-60
2023/08/18 01:18:03;;;;;;;10.73;8.17;;;;;;;-145.18;100.00;46642.81;5021674;28;20044;-60
2023/08/18 01:20:29;;;;;;;15.93;9.30;;;;;;;-145.18;100.00;46640.88;5030219;28;20392;-60
2023/08/18 01:22:59;;;;;;;10.40;7.30;;;;;;;-145.18;100.00;46644.78;5024692;28;20035;-59
2023/08/18 01:25:26;;;;;;;12.03;8.50;;;;;;;-145.18;100.00;46642.81;5022548;28;20456;-60
2023/08/18 01:27:56;;;;;;;9.40;7.53;;;;;;;-145.18;100.00;46644.78;5025869;28;20384;-59
2023/08/18 01:30:26;;;;;;;9.80;7.73;;;;;;;-145.18;100.00;46636.94;5025595;28;20063;-59
2023/08/18 01:33:18;;;;;;;10.57;7.90;;;;;;;-145.18;100.00;46638.91;5029907;28;20412;-60
2023/08/18 01:35:45;;;;;;;9.30;6.90;;;;;;;-145.18;100.00;46638.91;5026948;28;20017;-60
2023/08/18 01:38:14;;;;;;;9.33;7.60;;;;;;;-145.18;100.00;46640.88;5033747;28;20392;-60
2023/08/18 01:40:41;;;;;;;11.60;7.10;;;;;;;-145.18;100.00;46638.91;5027894;28;20021;-59
2023/08/18 01:43:06;;;;;;;9.57;7.10;;;;;;;-145.18;100.00;46640.88;5028653;28;20543;-60
2023/08/18 01:45:34;;;;;;;10.43;7.23;;;;;;;-145.18;100.00;46660.41;5027743;28;20100;-59
2023/08/18 01:47:59;;;;;;;10.20;7.77;;;;;;;-145.18;100.00;46636.94;5029073;28;20022;-59
2023/08/18 01:50:25;;;;;;;9.17;7.40;;;;;;;-145.18;100.00;46636.94;5013945;28;20362;-60
2023/08/18 01:52:50;;;;;;;7.93;6.73;;;;;;;-145.18;100.00;46638.91;5032323;28;20044;-60
2023/08/18 01:55:16;;;;;;;10.97;7.53;;;;;;;-145.18;100.00;46640.88;5032309;28;20028;-60
2023/08/18 01:57:41;;;;;;;11.30;8.13;;;;;;;-145.18;100.00;46640.88;5029474;28;20417;-60
2023/08/18 02:00:07;;;;;;;10.17;7.30;;;;;;;-145.18;100.00;46638.91;5032017;28;20041;-60
2023/08/18 02:02:34;;;;;;;9.70;8.03;;;;;;;-145.18;100.00;46660.41;5029730;28;20041;-60
2023/08/18 02:04:59;;;;;;;12.27;7.90;;;;;;;-145.18;100.00;46660.41;5030528;28;20037;-60
2023/08/18 02:07:24;;;;;;;8.47;7.40;;;;;;;-145.18;100.00;46636.94;5033096;28;20072;-60
2023/08/18 02:09:50;;;;;;;10.53;8.30;;;;;;;-145.18;100.00;46640.88;5030669;28;20103;-59
2023/08/18 02:12:15;;;;;;;11.57;7.17;;;;;;;-145.18;100.00;46636.94;5024617;28;20069;-60
2023/08/18 02:14:41;;;;;;;9.03;7.47;;;;;;;-145.18;100.00;46636.94;5029045;28;20037;-60
2023/08/18 02:17:06;;;;;;;10.37;7.33;;;;;;;-145.18;100.00;46660.41;5029716;28;20428;-59
2023/08/18 02:19:31;;;;;;;8.77;6.97;;;;;;;-145.18;100.00;46676.03;5030157;28;20495;-60
2023/08/18 02:21:57;;;;;;;9.33;7.13;;;;;;;-145.18;100.00;46638.91;5023114;28;20030;-60
2023/08/18 02:24:22;;;;;;;10.13;7.57;;;;;;;-145.18;100.00;46636.94;5028664;28;20142;-59
2023/08/18 02:26:47;;;;;;;9.87;7.80;;;;;;;-145.18;100.00;46638.91;5024633;28;20037;-60
2023/08/18 02:29:13;;;;;;;13.07;8.30;;;;;;;-145.18;100.00;46660.41;5030120;28;20029;-60
2023/08/18 02:31:38;;;;;;;10.40;7.10;;;;;;;-145.18;100.00;46660.41;5027004;28;20034;-60
2023/08/18 02:34:03;;;;;;;13.03;8.23;;;;;;;-145.18;100.00;46660.41;5021495;28;20077;-59
2023/08/18 02:36:29;;;;;;;9.63;8.00;;;;;;;-145.18;100.00;46660.41;5024245;28;20044;-60
2023/08/18 02:38:54;;;;;;;12.17;7.53;;;;;;;-145.18;100.00;46635.00;5024526;28;20545;-60
2023/08/18 02:41:19;;;;;;;10.67;7.70;;;;;;;-145.18;100.00;46660.41;5032356;28;20034;-60
2023/08/18 02:43:48;;;;;;;13.13;6.90;;;;;;;-145.18;100.00;46638.91;5022195;28;20022;-60
2023/08/18 02:46:14;;;;;;;14.90;8.57;;;;;;;-145.18;100.00;46636.94;5028663;28;20108;-60
2023/08/18 02:48:39;;;;;;;10.10;7.40;;;;;;;-145.18;100.00;46636.94;5022049;28;20541;-60
2023/08/18 02:51:06;;;;;;;10.20;7.90;;;;;;;-145.18;100.00;46635.00;5022224;28;20060;-60
2023/08/18 02:53:32;;;;;;;10.33;8.00;;;;;;;-145.18;100.00;46635.00;5022435;28;20037;-60
2023/08/18 02:56:00;;;;;;;9.97;7.90;;;;;;;-145.18;100.00;46660.41;5022626;28;20034;-60
2023/08/18 02:58:28;;;;;;;10.90;7.80;;;;;;;-145.18;100.00;46660.41;5028925;28;20091;-60
2023/08/18 03:00:55;;;;;;;10.27;8.27;;;;;;;-145.18;100.00;46660.41;5024091;28;20029;-60
2023/08/18 03:03:20;;;;;;;12.10;7.87;;;;;;;-145.18;100.00;46660.41;5029401;28;20389;-59
2023/08/18 03:05:46;;;;;;;12.37;8.10;;;;;;;-145.18;100.00;46636.94;5022154;28;20030;-59
2023/08/18 03:08:12;;;;;;;11.20;8.87;;;;;;;-145.18;100.00;46660.41;5031479;28;20531;-60
2023/08/18 03:10:37;;;;;;;11.73;8.43;;;;;;;-145.18;100.00;46635.00;5021509;28;20059;-60
2023/08/18 03:13:03;;;;;;;11.13;9.17;;;;;;;-145.18;100.00;46636.94;5026660;28;20104;-60
2023/08/18 03:15:30;;;;;;;14.67;8.80;;;;;;;-145.18;100.00;46635.00;5022233;28;20038;-60
2023/08/18 03:17:55;;;;;;;13.03;9.63;;;;;;;-145.18;100.00;46633.06;5026011;28;20063;-60
2023/08/18 03:20:21;;;;;;;12.87;9.10;;;;;;;-145.18;100.00;46660.41;5019292;28;20033;-60
2023/08/18 03:22:46;;;;;;;12.13;9.10;;;;;;;-145.18;100.00;46660.41;5023897;28;20116;-60
2023/08/18 03:25:12;;;;;;;12.77;9.10;;;;;;;-145.18;100.00;46660.41;5012708;28;20037;-60
2023/08/18 03:27:37;;;;;;;11.67;9.13;;;;;;;-145.18;100.00;46660.41;5023772;28;20049;-59
2023/08/18 03:30:04;;;;;;;11.53;8.50;;;;;;;-145.18;100.00;46660.41;5026941;28;20496;-60
2023/08/18 03:32:30;;;;;;;12.20;9.17;;;;;;;-145.18;100.00;46660.41;5017588;28;20057;-60
2023/08/18 03:34:56;;;;;;;13.87;9.87;;;;;;;-145.18;100.00;46660.41;5019124;28;20432;-60
2023/08/18 03:37:21;;;;;;;12.47;9.30;;;;;;;-145.18;100.00;46660.41;5023364;28;20116;-60
2023/08/18 03:39:47;;;;;;;12.30;8.70;;;;;;;-145.18;100.00;46635.00;5011634;28;20057;-60
2023/08/18 03:42:12;;;;;;;12.83;9.23;;;;;;;-145.18;100.00;46660.41;5023577;28;20026;-60
2023/08/18 03:44:37;;;;;;;18.00;10.83;;;;;;;-145.18;100.00;46660.41;5022438;28;20056;-60
2023/08/18 03:47:03;;;;;;;12.93;8.83;;;;;;;-145.18;100.00;46660.41;5014671;28;20490;-60
2023/08/18 03:49:29;;;;;;;11.17;8.63;;;;;;;-145.18;100.00;46660.41;5028184;28;20405;-60
2023/08/18 03:51:54;;;;;;;12.30;8.93;;;;;;;-145.18;100.00;46660.41;5029707;28;20101;-60
2023/08/18 03:54:20;;;;;;;15.13;9.40;;;;;;;-145.18;100.00;46660.41;5010132;28;20164;-60
2023/08/18 03:56:46;;;;;;;11.83;8.93;;;;;;;-145.18;100.00;46660.41;5027609;28;20029;-60
2023/08/18 03:59:11;;;;;;;13.97;8.67;;;;;;;-145.18;100.00;46660.41;5029528;28;20037;-60
2023/08/18 04:01:36;;;;;;;13.57;9.03;;;;;;;-145.18;100.00;46660.41;5029397;28;20072;-60
2023/08/18 04:04:04;;;;;;;10.97;8.73;;;;;;;-145.18;100.00;46660.41;5024168;28;20117;-60
2023/08/18 04:06:29;;;;;;;12.13;8.23;;;;;;;-145.18;100.00;46660.41;5020295;28;20065;-59
2023/08/18 04:09:06;;;;;;;12.83;8.93;;;;;;;-145.18;100.00;46633.06;5026056;28;20528;-60
2023/08/18 04:11:35;;;;;;;17.00;8.50;;;;;;;-145.18;100.00;46660.41;5025122;28;20494;-60
2023/08/18 04:14:02;;;;;;;13.70;8.60;;;;;;;-145.18;100.00;46660.41;5024932;28;20030;-60
2023/08/18 04:16:31;;;;;;;10.80;7.77;;;;;;;-145.18;100.00;46660.41;5019541;28;20029;-60
2023/08/18 04:18:56;;;;;;;13.07;9.00;;;;;;;-145.18;100.00;46660.41;5030105;28;20060;-60
2023/08/18 04:21:22;;;;;;;12.93;8.30;;;;;;;-145.18;100.00;46660.41;5027243;28;20029;-60
2023/08/18 04:23:47;;;;;;;11.90;8.60;;;;;;;-145.18;100.00;46660.41;5025080;28;20033;-60
2023/08/18 04:26:12;;;;;;;16.70;8.60;;;;;;;-145.18;100.00;46660.41;5031111;28;20446;-60
2023/08/18 04:28:38;;;;;;;10.53;8.10;;;;;;;-145.18;100.00;46633.06;5019914;28;20040;-60
2023/08/18 04:31:04;;;;;;;12.30;8.87;;;;;;;-145.18;100.00;46635.00;5021263;28;20466;-61
2023/08/18 04:33:29;;;;;;;13.73;8.73;;;;;;;-145.18;100.00;46635.00;5026325;28;20049;-60
2023/08/18 04:35:55;;;;;;;12.23;8.00;;;;;;;-145.18;100.00;46638.91;5024738;28;20114;-60
2023/08/18 04:38:20;;;;;;;11.33;8.70;;;;;;;-145.18;100.00;46660.41;5034121;28;20726;-60
2023/08/18 04:41:02;;;;;;;12.77;8.33;;;;;;;-145.18;100.00;46638.91;5033970;28;20067;-60
2023/08/18 04:43:28;;;;;;;12.47;8.93;;;;;;;-145.18;100.00;46660.41;5033852;28;20060;-60
2023/08/18 04:45:54;;;;;;;11.50;7.73;;;;;;;-145.18;100.00;46638.91;5029896;28;20038;-60
2023/08/18 04:48:21;;;;;;;11.13;7.93;;;;;;;-145.18;100.00;46660.41;5031125;28;20382;-60
2023/08/18 04:50:46;;;;;;;13.43;8.47;;;;;;;-145.18;100.00;46635.00;5025265;28;20109;-60
2023/08/18 04:53:12;;;;;;;15.43;8.30;;;;;;;-145.18;100.00;46660.41;5033193;28;20116;-60
2023/08/18 04:55:37;;;;;;;10.23;7.90;;;;;;;-145.18;100.00;46636.94;5024074;28;20067;-60
2023/08/18 04:58:03;;;;;;;12.90;8.20;;;;;;;-145.18;100.00;46660.41;5029753;28;20366;-60
2023/08/18 05:00:29;;;;;;;13.90;8.37;;;;;;;-145.18;100.00;46660.41;5032241;28;20048;-60
2023/08/18 05:02:54;;;;;;;12.83;8.33;;;;;;;-145.18;100.00;46635.00;5027395;28;20033;-60
2023/08/18 05:05:20;;;;;;;11.30;8.40;;;;;;;-145.18;100.00;46660.41;5020664;28;20037;-60
2023/08/18 05:07:45;;;;;;;12.13;9.00;;;;;;;-145.18;100.00;46633.06;5024939;28;20030;-59
2023/08/18 05:10:11;;;;;;;12.83;8.83;;;;;;;-145.18;100.00;46633.06;5026444;28;20113;-60
2023/08/18 05:12:36;;;;;;;14.70;8.67;;;;;;;-145.18;100.00;46633.06;5028420;28;20045;-59
2023/08/18 05:15:03;;;;;;;13.47;8.93;;;;;;;-145.18;100.00;46635.00;5022393;28;20478;-60
2023/08/18 05:17:29;;;;;;;12.20;9.33;;;;;;;-145.18;100.00;46636.94;5032498;28;20052;-60
2023/08/18 05:19:54;;;;;;;15.73;9.60;;;;;;;-145.18;100.00;46631.09;5034297;28;20025;-59
2023/08/18 05:22:21;;;;;;;12.80;7.93;;;;;;;-145.18;100.00;46635.00;5032321;28;20087;-60
2023/08/18 05:24:51;;;;;;;12.40;9.00;;;;;;;-145.18;100.00;46635.00;5028178;28;20036;-60
2023/08/18 05:27:16;;;;;;;16.87;9.13;;;;;;;-145.18;100.00;46638.91;5024988;28;20044;-60
2023/08/18 05:29:41;;;;;;;13.33;9.60;;;;;;;-145.18;100.00;46635.00;5019090;28;20026;-60
2023/08/18 05:32:07;;;;;;;17.73;8.70;;;;;;;-145.18;100.00;46638.91;5018696;28;20042;-60
2023/08/18 05:34:32;;;;;;;12.43;7.80;;;;;;;-145.18;100.00;46660.41;5030481;28;20076;-60
2023/08/18 05:36:58;;;;;;;11.50;8.90;;;;;;;-145.18;100.00;46635.00;5032969;28;20053;-59
2023/08/18 05:39:23;;;;;;;11.67;7.77;;;;;;;-145.18;100.00;46636.94;5023516;28;20083;-60
2023/08/18 05:41:48;;;;;;;11.53;8.07;;;;;;;-145.18;100.00;46633.06;5027514;28;20033;-60
2023/08/18 05:44:14;;;;;;;12.67;8.80;;;;;;;-145.18;100.00;46635.00;5032519;28;20041;-60
2023/08/18 05:46:40;;;;;;;12.23;8.50;;;;;;;-145.18;100.00;46635.00;5026134;28;20037;-60
2023/08/18 05:49:05;;;;;;;15.27;9.33;;;;;;;-145.18;100.00;46633.06;5019588;28;20073;-60
2023/08/18 05:51:31;;;;;;;14.70;9.60;;;;;;;-145.18;100.00;46631.09;5021331;28;20433;-60
2023/08/18 05:53:56;;;;;;;12.63;8.63;;;;;;;-145.18;100.00;46635.00;5029568;28;20112;-60
2023/08/18 05:56:22;;;;;;;16.20;9.07;;;;;;;-145.18;100.00;46631.09;5028328;28;20472;-60
2023/08/18 05:58:47;;;;;;;12.23;8.50;;;;;;;-145.18;100.00;46636.94;5029901;28;20041;-60
2023/08/18 06:01:14;;;;;;;13.60;8.70;;;;;;;-145.18;100.00;46631.09;5028365;28;20610;-59
2023/08/18 06:03:40;;;;;;;15.37;9.63;;;;;;;-145.18;100.00;46636.94;5020918;28;20046;-60
2023/08/18 06:06:05;;;;;;;15.83;9.10;;;;;;;-145.18;100.00;46635.00;5029998;28;20048;-60
2023/08/18 06:08:31;;;;;;;16.53;9.00;;;;;;;-145.18;100.00;46633.06;5020819;28;20555;-60
2023/08/18 06:10:56;;;;;;;18.10;9.37;;;;;;;-145.18;100.00;46636.94;5032001;28;20041;-60
2023/08/18 06:13:22;;;;;;;11.73;8.63;;;;;;;-145.18;100.00;46635.00;5030130;28;20033;-60
2023/08/18 06:15:50;;;;;;;13.70;9.27;;;;;;;-145.18;100.00;46633.06;5030808;28;20021;-60
2023/08/18 06:18:15;;;;;;;16.93;9.23;;;;;;;-145.18;100.00;46633.06;5033420;28;20037;-60
2023/08/18 06:20:40;;;;;;;17.00;9.83;;;;;;;-145.18;100.00;46636.94;5032152;28;20033;-60
2023/08/18 06:23:06;;;;;;;17.30;9.80;;;;;;;-145.18;100.00;46631.09;5026459;28;20453;-60
2023/08/18 06:25:31;;;;;;;15.97;9.83;;;;;;;-145.18;100.00;46633.06;5015424;28;20066;-60
2023/08/18 06:27:58;;;;;;;18.13;9.63;;;;;;;-145.18;100.00;46633.06;5027295;28;20053;-59
2023/08/18 06:30:23;;;;;;;15.67;10.33;;;;;;;-145.18;100.00;46635.00;5036864;28;20116;-60
2023/08/18 06:32:49;;;;;;;16.23;10.07;;;;;;;-145.18;100.00;46635.00;5016198;28;20046;-60
2023/08/18 06:35:14;;;;;;;19.23;10.87;;;;;;;-145.18;100.00;46633.06;5032964;28;20036;-60
2023/08/18 06:37:40;;;;;;;16.80;9.83;;;;;;;-145.18;100.00;46633.06;5026749;28;20045;-60
2023/08/18 06:40:06;;;;;;;16.50;10.17;;;;;;;-145.18;100.00;46635.00;5027524;28;20029;-60
2023/08/18 06:42:31;;;;;;;16.00;10.23;;;;;;;-145.18;100.00;46635.00;5025795;28;20037;-60
2023/08/18 06:44:56;;;;;;;19.47;10.60;;;;;;;-145.18;100.00;46633.06;5031045;28;20092;-60
2023/08/18 06:47:23;;;;;;;17.20;10.07;;;;;;;-145.18;100.00;46636.94;5028815;28;20033;-60
2023/08/18 06:49:48;;;;;;;19.17;11.00;;;;;;;-145.18;100.00;46636.94;5030128;28;20108;-60
2023/08/18 06:52:14;;;;;;;16.30;10.50;;;;;;;-145.18;100.00;46636.94;5027391;28;20120;-60
2023/08/18 06:54:39;;;;;;;15.53;10.63;;;;;;;-145.18;100.00;46638.91;5029444;28;20021;-60
2023/08/18 06:57:05;;;;;;;17.13;10.53;;;;;;;-145.18;100.00;46636.94;5027503;28;20030;-60
2023/08/18 06:59:30;;;;;;;16.50;10.53;;;;;;;-145.18;100.00;46638.91;5029682;28;20045;-60
2023/08/18 07:01:56;;;;;;;17.17;11.57;;;;;;;-145.18;100.00;46636.94;5029664;28;20031;-60
2023/08/18 07:04:21;;;;;;;18.23;11.97;;;;;;;-145.18;100.00;46640.88;5037721;28;20502;-60
2023/08/18 07:06:47;;;;;;;19.93;11.47;;;;;;;-145.18;100.00;46638.91;5027572;28;20059;-60
2023/08/18 07:09:12;;;;;;;20.77;12.07;;;;;;;-145.18;100.00;46642.81;5031681;28;20504;-60
2023/08/18 07:11:38;;;;;;;20.53;12.60;;;;;;;-145.18;100.00;46644.78;5027721;28;20077;-61
2023/08/18 07:14:04;;;;;;;21.13;11.67;;;;;;;-145.18;100.00;46640.88;5026932;28;20091;-60
2023/08/18 07:16:30;;;;;;;20.77;12.63;;;;;;;-145.18;100.00;46640.88;5026528;28;20087;-60
2023/08/18 07:18:55;;;;;;;20.27;13.13;;;;;;;-145.18;100.00;46640.88;5030705;28;20033;-60
2023/08/18 07:21:20;;;;;;;23.13;12.37;;;;;;;-145.18;100.00;46642.81;5029704;28;20037;-60
2023/08/18 07:23:46;;;;;;;23.70;13.10;;;;;;;-145.18;100.00;46640.88;5029345;28;20475;-60
2023/08/18 07:26:11;;;;;;;20.20;13.00;;;;;;;-145.18;100.00;46644.78;5033655;28;20043;-60
2023/08/18 07:28:37;;;;;;;21.80;13.20;;;;;;;-145.18;100.00;46644.78;5026092;28;20033;-60
2023/08/18 07:31:03;;;;;;;23.93;13.50;;;;;;;-145.18;100.00;46646.72;5031382;28;20029;-60
2023/08/18 07:33:30;;;;;;;20.63;12.03;;;;;;;-145.18;100.00;46644.78;5028865;28;20061;-60
2023/08/18 07:35:56;;;;;;;18.93;12.20;;;;;;;-145.18;100.00;46642.81;5028441;28;20445;-60
2023/08/18 07:38:22;;;;;;;24.00;12.97;;;;;;;-145.18;100.00;46646.72;5030377;28;20118;-60
2023/08/18 07:40:47;;;;;;;23.63;13.87;;;;;;;-145.18;100.00;46642.81;5030340;28;20131;-60
2023/08/18 07:43:13;;;;;;;30.17;14.37;;;;;;;-145.18;100.00;46648.69;5027782;28;20087;-60
2023/08/18 07:45:38;;;;;;;25.00;14.13;;;;;;;-145.18;100.00;46646.72;5031600;28;20053;-60
2023/08/18 07:48:04;;;;;;;23.70;13.67;;;;;;;-145.18;100.00;46652.59;5028306;28;20084;-60
2023/08/18 07:50:30;;;;;;;24.10;13.57;;;;;;;-145.18;100.00;46652.59;5028034;28;20393;-60
2023/08/18 07:52:56;;;;;;;22.63;14.10;;;;;;;-145.18;100.00;46652.59;5026369;28;20088;-61
2023/08/18 07:55:21;;;;;;;22.63;13.80;;;;;;;-145.18;100.00;46648.69;5030179;28;20038;-60
2023/08/18 07:57:47;;;;;;;30.67;15.43;;;;;;;-145.18;100.00;46654.53;5030165;28;20029;-60
2023/08/18 08:00:16;;;;;;;23.87;13.90;;;;;;;-145.18;100.00;46650.63;5028881;28;20104;-60
2023/08/18 08:02:43;;;;;;;25.43;14.20;;;;;;;-145.18;100.00;46650.63;5028734;28;20034;-60
2023/08/18 08:05:08;;;;;;;29.60;15.27;;;;;;;-145.18;100.00;46648.69;5027014;28;20524;-60
2023/08/18 08:07:34;;;;;;;25.40;14.53;;;;;;;-145.18;100.00;46650.63;5030434;28;20025;-60
2023/08/18 08:10:03;;;;;;;25.07;14.50;;;;;;;-145.18;100.00;46650.63;5028416;28;20448;-63
2023/08/18 08:12:38;;;;;;;28.57;14.97;;;;;;;-145.18;100.00;46652.59;5029811;28;20467;-63
2023/08/18 08:15:04;;;;;;;25.27;15.43;;;;;;;-145.18;100.00;46650.63;5028213;28;20029;-63
2023/08/18 08:17:30;;;;;;;30.63;14.90;;;;;;;-145.18;100.00;46646.72;5029311;28;20033;-63
2023/08/18 08:19:56;;;;;;;31.43;15.53;;;;;;;-145.18;100.00;46650.63;5029044;28;20075;-63
2023/08/18 08:22:23;;;;;;;37.83;14.60;;;;;;;-145.18;100.00;46650.63;5029393;28;20494;-63
2023/08/18 08:24:50;;;;;;;25.87;14.27;;;;;;;-145.18;100.00;46658.44;5029513;28;20083;-63
2023/08/18 08:27:16;;;;;;;25.37;14.23;;;;;;;-145.18;100.00;46650.63;5026387;28;20036;-63
2023/08/18 08:29:41;;;;;;;27.17;15.03;;;;;;;-145.18;100.00;46654.53;5028027;28;20042;-63
2023/08/18 08:32:07;;;;;;;25.30;14.63;;;;;;;-145.18;100.00;46654.53;5026150;28;20036;-63
2023/08/18 08:34:32;;;;;;;23.53;14.13;;;;;;;-145.18;100.00;46664.31;5026204;28;20126;-63
2023/08/18 08:36:58;;;;;;;25.40;15.07;;;;;;;-145.18;100.00;46668.22;5029362;28;20030;-63
2023/08/18 08:39:23;;;;;;;24.27;15.00;;;;;;;-145.18;100.00;46664.31;5029305;28;20038;-63
2023/08/18 08:41:49;;;;;;;24.03;13.53;;;;;;;-145.18;100.00;46666.25;5027959;28;20057;-63
2023/08/18 08:44:14;;;;;;;21.33;13.20;;;;;;;-145.18;100.00;46668.22;5029592;28;20123;-63
2023/08/18 08:46:40;;;;;;;21.20;14.17;;;;;;;-145.18;100.00;46668.22;5032892;28;20030;-63
2023/08/18 08:49:07;;;;;;;26.20;13.77;;;;;;;-145.18;100.00;46668.22;5030981;28;20104;-63
2023/08/18 08:51:40;;;;;;;24.10;13.73;;;;;;;-145.18;100.00;46672.13;5031667;28;20049;-63
2023/08/18 08:54:07;;;;;;;20.30;12.90;;;;;;;-145.18;100.00;46668.22;5031646;28;20370;-63
2023/08/18 08:56:34;;;;;;;25.53;14.30;;;;;;;-145.18;100.00;46668.22;5030175;28;20034;-63
2023/08/18 08:59:00;;;;;;;25.73;14.53;;;;;;;-145.18;100.00;46672.13;5033251;28;20060;-63
2023/08/18 09:01:26;;;;;;;29.20;14.63;;;;;;;-145.18;100.00;46674.06;5031415;28;20094;-63
2023/08/18 09:03:51;;;;;;;20.47;12.83;;;;;;;-145.18;100.00;46670.16;5029579;28;20502;-63
2023/08/18 09:06:17;;;;;;;21.90;13.53;;;;;;;-145.18;100.00;46664.31;5032254;28;20029;-63
2023/08/18 09:08:43;;;;;;;20.80;13.23;;;;;;;-145.18;100.00;46670.16;5030181;28;20397;-63
2023/08/18 09:11:09;;;;;;;21.33;11.93;;;;;;;-145.18;100.00;46674.06;5032455;28;20037;-63
2023/08/18 09:13:35;;;;;;;21.70;13.37;;;;;;;-145.18;100.00;46672.13;5030702;28;20520;-63
2023/08/18 09:16:06;;;;;;;24.60;12.83;;;;;;;-145.18;100.00;46674.06;5031345;28;20487;-63
2023/08/18 09:18:32;;;;;;;21.27;13.87;;;;;;;-145.18;100.00;46676.03;5031089;28;20036;-63
2023/08/18 09:21:00;;;;;;;25.80;14.40;;;;;;;-145.18;100.00;46666.25;5028917;28;20033;-60
2023/08/18 09:23:27;;;;;;;27.77;15.27;;;;;;;-145.18;100.00;46672.13;5032279;28;20036;-60
2023/08/18 09:25:52;;;;;;;26.40;14.03;;;;;;;-145.18;100.00;46674.06;5031621;28;20515;-60
2023/08/18 09:28:18;;;;;;;27.70;13.97;;;;;;;-145.18;100.00;46672.13;5029968;28;20037;-60
2023/08/18 09:30:44;;;;;;;23.43;13.50;;;;;;;-145.18;100.00;46672.13;5033004;28;20030;-60
2023/08/18 09:33:09;;;;;;;20.93;13.10;;;;;;;-145.18;100.00;46674.06;5027875;28;20052;-60
2023/08/18 09:35:35;;;;;;;26.40;14.30;;;;;;;-145.18;100.00;46679.94;5032587;28;20022;-61
2023/08/18 09:38:01;;;;;;;20.43;12.73;;;;;;;-145.18;100.00;46677.97;5028365;28;20033;-60
2023/08/18 09:40:27;;;;;;;34.63;14.30;;;;;;;-145.18;100.00;46677.97;5030869;28;20409;-60
2023/08/18 09:42:53;;;;;;;25.57;14.93;;;;;;;-145.18;100.00;46679.94;5030166;28;20108;-61
2023/08/18 09:45:23;;;;;;;23.60;14.97;;;;;;;-145.18;100.00;46683.84;5033506;28;20404;-59
2023/08/18 09:47:53;;;;;;;19.90;13.93;;;;;;;-145.18;100.00;46679.94;5029691;28;20493;-61
2023/08/18 09:50:20;;;;;;;20.30;14.37;;;;;;;-145.18;100.00;46683.84;5033121;28;20026;-61
2023/08/18 09:52:50;;;;;;;22.13;14.33;;;;;;;-145.18;100.00;46679.94;5028827;28;20044;-60
2023/08/18 09:55:19;;;;;;;21.53;14.37;;;;;;;-145.18;100.00;46683.84;5032596;28;20052;-61
2023/08/18 09:57:56;;;;;;;21.63;14.00;;;;;;;-145.18;100.00;46677.97;5028628;28;20409;-61
2023/08/18 10:00:23;;;;;;;23.03;14.97;;;;;;;-145.18;100.00;46677.97;5030674;28;20029;-61
2023/08/18 10:02:52;;;;;;;20.20;14.00;;;;;;;-145.18;100.00;46679.94;5030172;28;20512;-61
2023/08/18 10:05:19;;;;;;;23.57;14.70;;;;;;;-145.18;100.00;46683.84;5029175;28;20192;-61
2023/08/18 10:07:45;;;;;;;24.83;15.53;;;;;;;-145.18;100.00;46685.78;5030008;28;20044;-61
2023/08/18 10:10:12;;;;;;;23.10;15.57;;;;;;;-145.18;100.00;46679.94;5028144;28;20433;-60
2023/08/18 10:12:38;;;;;;;25.63;16.20;;;;;;;-145.18;100.00;46685.78;5031823;28;20036;-60
2023/08/18 10:15:05;;;;;;;21.80;15.33;;;;;;;-145.18;100.00;46681.88;5031137;28;20032;-61
2023/08/18 10:17:31;;;;;;;27.53;15.47;;;;;;;-145.18;100.00;46681.88;5030272;28;20033;-60
2023/08/18 10:20:00;;;;;;;23.90;15.97;;;;;;;-145.18;100.00;46679.94;5038617;28;20030;-61
2023/08/18 10:22:28;;;;;;;24.10;16.57;;;;;;;-145.18;100.00;46672.13;5030960;28;20037;-61
2023/08/18 10:24:54;;;;;;;21.13;14.80;;;;;;;-145.18;100.00;46679.94;5030784;28;20035;-61
2023/08/18 10:27:28;;;;;;;23.40;16.50;;;;;;;-145.18;100.00;46679.94;5039383;28;20074;-60
2023/08/18 10:29:59;;;;;;;24.97;16.03;;;;;;;-145.18;100.00;46679.94;5028759;28;20044;-61
2023/08/18 10:32:25;;;;;;;25.33;17.37;;;;;;;-145.18;100.00;46683.84;5031042;28;20041;-63
2023/08/18 10:34:51;;;;;;;29.30;16.20;;;;;;;-145.18;100.00;46679.94;5030288;28;20013;-63
2023/08/18 10:37:20;;;;;;;23.53;15.60;;;;;;;-145.18;100.00;46685.78;5029702;28;20520;-63
2023/08/18 10:39:48;;;;;;;23.17;15.73;;;;;;;-145.18;100.00;46685.78;5026891;28;20507;-63
2023/08/18 10:42:15;;;;;;;24.33;16.83;;;;;;;-145.18;100.00;46685.78;5029265;28;20578;-63
2023/08/18 10:45:21;;;;;;;24.27;16.17;;;;;;;-145.18;100.00;46687.75;5030162;28;20033;-63
2023/08/18 10:47:46;;;;;;;27.65;17.58;;;;;;;-145.18;100.00;46687.75;5027264;28;20511;-63
2023/08/18 10:50:14;;;;;;;24.87;16.47;;;;;;;-145.18;100.00;46691.66;5030931;28;20025;-63
2023/08/18 10:52:40;;;;;;;25.15;15.20;;;;;;;-145.18;100.00;46687.75;5039018;28;20493;-63
2023/08/18 10:55:07;;;;;;;24.30;15.83;;;;;;;-145.18;100.00;46687.75;5028797;28;20100;-63
2023/08/18 10:57:33;;;;;;;23.65;15.68;;;;;;;-145.18;100.00;46687.75;5031170;28;20037;-63